Item Display Status Serial CT Sensor

Mooring Depth: 1 m

 

Deployed Sensor

  • Serial Number: 8789
  • NDBC Property Number: 35199
  • Start Date: 2/28/2014 (11:39:07 Z)
  • End Date: 6/23/2014 (20:00:00 Z)
Water Temperature [°C]     6 entries per hour
Showing data from 4/30/2015 (19:30:00 Z) to 4/29/2015 (00:00:01 Z)
Previous Next [ Day | 3-Days | 7-Days ]
First Last
Prev [ Day | 3-Days | 7-Days ] Next
First Last

Start Time:     :
End Time:     :     
Time (in GMT) :00 :50 :40 :30 :20 :10
Previous Next [ Day | 3-Days | 7-Days ]
First Last
Prev [ Day | 3-Days | 7-Days ] Next
First Last


123 => good data
MM => data is determined as missing
-- => data not received/configured
Back to Top Back to Top
4/30/2015 20:00 to 19:10 -- -- -- 29.738 29.713 29.706
4/30/2015 19:00 to 18:10 29.670 29.638 29.623 29.606 29.573 29.560
4/30/2015 18:00 to 17:10 -- -- 29.531 29.527 29.497 29.499
4/30/2015 17:00 to 16:10 29.474 29.480 29.469 29.460 29.465 29.439
4/30/2015 16:00 to 15:10 29.427 29.417 29.414 29.413 29.407 29.414
4/30/2015 15:00 to 14:10 29.411 29.406 29.410 29.412 29.407 29.412
4/30/2015 14:00 to 13:10 29.411 29.416 29.409 29.408 29.415 29.419
4/30/2015 13:00 to 12:10 29.419 29.413 29.418 29.417 29.425 29.424
4/30/2015 12:00 to 11:10 29.427 29.436 29.443 29.444 29.450 29.457
4/30/2015 11:00 to 10:10 29.463 29.458 29.461 29.460 29.461 29.464
4/30/2015 10:00 to 9:10 29.469 29.471 29.482 29.490 29.500 29.501
4/30/2015 09:00 to 8:10 -- -- -- -- -- --
4/30/2015 08:00 to 7:10 29.542 29.540 29.547 29.546 29.544 29.547
4/30/2015 07:00 to 6:10 29.550 29.551 29.552 29.556 29.582 29.590
4/30/2015 06:00 to 5:10 29.592 29.597 29.597 29.603 29.605 29.620
4/30/2015 05:00 to 4:10 29.624 29.636 29.661 29.693 29.684 29.699
4/30/2015 04:00 to 3:10 29.709 29.734 29.740 29.720 29.721 29.709
4/30/2015 03:00 to 2:10 29.727 29.736 29.775 29.760 29.769 29.799
4/30/2015 02:00 to 1:10 29.804 29.810 29.837 29.848 29.849 29.861
4/30/2015 01:00 to 0:10 29.858 29.871 29.920 29.894 29.959 29.961
4/30/2015 00:00 to 23:10 29.992 30.077 30.094 30.078 30.137 30.131
4/29/2015 23:00 to 22:10 30.181 30.282 30.252 30.176 30.218 30.113
4/29/2015 22:00 to 21:10 30.143 30.109 29.995 30.177 30.035 30.090
4/29/2015 21:00 to 20:10 30.079 30.072 29.965 30.001 29.940 29.899
4/29/2015 20:00 to 19:10 29.882 29.924 29.932 29.889 29.871 29.847
4/29/2015 19:00 to 18:10 29.817 29.780 29.750 29.727 29.717 29.683
4/29/2015 18:00 to 17:10 29.701 29.657 29.637 29.610 29.593 29.572
4/29/2015 17:00 to 16:10 29.560 29.549 29.538 29.524 29.500 29.488
4/29/2015 16:00 to 15:10 29.471 29.455 29.438 29.395 29.378 29.374
4/29/2015 15:00 to 14:10 29.378 29.375 29.380 29.377 29.380 29.380
4/29/2015 14:00 to 13:10 29.382 29.380 29.388 29.379 29.391 29.402
4/29/2015 13:00 to 12:10 29.413 29.417 29.407 29.413 29.419 29.389
4/29/2015 12:00 to 11:10 29.381 29.375 29.373 29.367 29.369 29.359
4/29/2015 11:00 to 10:10 29.376 29.358 29.376 29.372 29.374 29.373
4/29/2015 10:00 to 9:10 29.378 29.380 29.375 29.390 29.395 29.400
4/29/2015 09:00 to 8:10 29.405 29.402 29.394 29.395 29.397 29.394
4/29/2015 08:00 to 7:10 29.385 29.385 29.388 29.399 29.394 29.398
4/29/2015 07:00 to 6:10 29.403 29.399 29.400 29.399 29.399 29.406
4/29/2015 06:00 to 5:10 29.404 29.414 29.421 29.424 29.462 29.450
4/29/2015 05:00 to 4:10 29.435 29.432 29.434 29.443 29.437 29.440
4/29/2015 04:00 to 3:10 29.440 29.451 29.446 29.445 29.452 29.466
4/29/2015 03:00 to 2:10 29.466 29.458 29.461 29.449 29.452 29.458
4/29/2015 02:00 to 1:10 29.454 29.463 29.477 29.477 29.493 29.482
4/29/2015 01:00 to 0:10 29.467 29.470 29.476 29.495 29.506 29.512

 

 

 

Conductivity [S/m]     6 entries per hour
Showing data from 4/30/2015 (19:00:00 Z) to 4/29/2015 (00:00:01 Z)
Previous Next [ Day | 3-Days | 7-Days ]
First Last
Prev [ Day | 3-Days | 7-Days ] Next
First Last

Start Time:     :
End Time:     :     
Time (in GMT) :00 :50 :40 :30 :20 :10
Previous Next [ Day | 3-Days | 7-Days ]
First Last
Prev [ Day | 3-Days | 7-Days ] Next
First Last


123 => good data
MM => data is determined as missing
-- => data not received/configured
Back to Top Back to Top
4/30/2015 19:00 to 18:10 5.71184 5.70930 5.70724 5.70510 5.70155 5.70043
4/30/2015 18:00 to 17:10 5.69865 5.69835 5.69655 5.69619 5.69261 5.69288
4/30/2015 17:00 to 16:10 5.68980 5.69058 5.68930 5.68789 5.68808 5.68518
4/30/2015 16:00 to 15:10 5.68416 5.68314 5.68256 5.68218 5.68162 5.68188
4/30/2015 15:00 to 14:10 5.68187 5.68107 5.68124 5.68152 5.68057 5.68093
4/30/2015 14:00 to 13:10 5.68087 5.68141 5.68037 5.68029 5.68103 5.68112
4/30/2015 13:00 to 12:10 5.68090 5.68016 5.68103 5.68020 5.68095 5.68130
4/30/2015 12:00 to 11:10 5.68122 5.68237 5.68305 5.68302 5.68356 5.68423
4/30/2015 11:00 to 10:10 5.68534 5.68403 5.68463 5.68472 5.68505 5.68506
4/30/2015 10:00 to 9:10 5.68558 5.68599 5.68723 5.68832 5.68928 5.68970
4/30/2015 09:00 to 8:10 -- -- -- -- -- --
4/30/2015 08:00 to 7:10 5.69448 5.69437 5.69471 5.69479 5.69474 5.69504
4/30/2015 07:00 to 6:10 5.69580 5.69623 5.69577 5.69574 5.69881 5.69957
4/30/2015 06:00 to 5:10 5.69973 5.70010 5.70027 5.70047 5.70027 5.70216
4/30/2015 05:00 to 4:10 5.70278 5.70344 5.70626 5.70996 5.70832 5.71035
4/30/2015 04:00 to 3:10 5.71101 5.71400 5.71438 5.71194 5.71200 5.71059
4/30/2015 03:00 to 2:10 5.71227 5.71277 5.71746 5.71488 5.71633 5.71914
4/30/2015 02:00 to 1:10 5.71887 5.71969 5.72250 5.72333 5.72334 5.72453
4/30/2015 01:00 to 0:10 5.72336 5.72523 5.73009 5.72655 5.73301 5.73337
4/30/2015 00:00 to 23:10 5.73692 5.74666 5.74748 5.74445 5.74813 5.74912
4/29/2015 23:00 to 22:10 5.75495 5.76430 5.76236 5.75564 5.76136 5.74505
4/29/2015 22:00 to 21:10 5.75340 5.74467 5.73170 5.75577 5.74216 5.74274
4/29/2015 21:00 to 20:10 5.73984 5.74207 5.73028 5.73163 5.72380 5.72022
4/29/2015 20:00 to 19:10 5.71852 5.72257 5.72203 5.71856 5.71596 5.71397
4/29/2015 19:00 to 18:10 5.71012 5.70700 5.70042 5.69835 5.69814 5.69342
4/29/2015 18:00 to 17:10 5.69585 5.68944 5.68720 5.68390 5.68188 5.67936
4/29/2015 17:00 to 16:10 5.67789 5.67765 5.67522 5.67359 5.67040 5.66857
4/29/2015 16:00 to 15:10 5.66723 5.66640 5.66437 5.66723 5.66540 5.66502
4/29/2015 15:00 to 14:10 5.66556 5.66484 5.66515 5.66452 5.66455 5.66439
4/29/2015 14:00 to 13:10 5.66431 5.66389 5.66424 5.66276 5.66316 5.66545
4/29/2015 13:00 to 12:10 5.66728 5.66776 5.66677 5.66929 5.66998 5.66627
4/29/2015 12:00 to 11:10 5.66682 5.66732 5.66673 5.66594 5.66580 5.66538
4/29/2015 11:00 to 10:10 5.66756 5.66473 5.66785 5.66729 5.66791 5.66817
4/29/2015 10:00 to 9:10 5.66856 5.66874 5.66830 5.67043 5.67087 5.67162
4/29/2015 09:00 to 8:10 5.67225 5.67208 5.67105 5.67068 5.67115 5.67071
4/29/2015 08:00 to 7:10 5.66972 5.66962 5.67009 5.67094 5.67035 5.67078
4/29/2015 07:00 to 6:10 5.67129 5.67106 5.67094 5.67062 5.67028 5.67135
4/29/2015 06:00 to 5:10 5.67093 5.67199 5.67242 5.67303 5.67891 5.67881
4/29/2015 05:00 to 4:10 5.67686 5.67660 5.67675 5.67700 5.67606 5.67720
4/29/2015 04:00 to 3:10 5.67677 5.67834 5.67757 5.67792 5.67828 5.68053
4/29/2015 03:00 to 2:10 5.68069 5.67977 5.68012 5.67828 5.67834 5.67821
4/29/2015 02:00 to 1:10 5.67825 5.67945 5.68092 5.68280 5.68393 5.68269
4/29/2015 01:00 to 0:10 5.68101 5.68119 5.68180 5.68351 5.68462 5.68582

 

 

 

Salinity [psu]     6 entries per hour
Showing data from 4/30/2015 (19:00:00 Z) to 4/29/2015 (00:00:01 Z)
Previous Next [ Day | 3-Days | 7-Days ]
First Last
Prev [ Day | 3-Days | 7-Days ] Next
First Last

Start Time:     :
End Time:     :     
Time (in GMT) :00 :50 :40 :30 :20 :10
Previous Next [ Day | 3-Days | 7-Days ]
First Last
Prev [ Day | 3-Days | 7-Days ] Next
First Last


123 => good data
MM => data is determined as missing
-- => data not received/configured
Back to Top Back to Top
4/30/2015 19:00 to 18:10 34.40 34.40 34.40 34.40 34.40 34.40
4/30/2015 18:00 to 17:10 -- -- 34.39 34.39 34.39 34.39
4/30/2015 17:00 to 16:10 34.39 34.39 34.39 34.38 34.38 34.38
4/30/2015 16:00 to 15:10 34.38 34.38 34.38 34.38 34.38 34.38
4/30/2015 15:00 to 14:10 34.38 34.38 34.38 34.38 34.37 34.37
4/30/2015 14:00 to 13:10 34.37 34.37 34.37 34.37 34.37 34.37
4/30/2015 13:00 to 12:10 34.37 34.37 34.37 34.36 34.36 34.37
4/30/2015 12:00 to 11:10 34.36 34.36 34.36 34.36 34.36 34.36
4/30/2015 11:00 to 10:10 34.37 34.36 34.36 34.36 34.36 34.36
4/30/2015 10:00 to 9:10 34.36 34.36 34.37 34.37 34.37 34.37
4/30/2015 09:00 to 8:10 -- -- -- -- -- --
4/30/2015 08:00 to 7:10 34.37 34.37 34.37 34.37 34.37 34.37
4/30/2015 07:00 to 6:10 34.37 34.38 34.37 34.37 34.37 34.37
4/30/2015 06:00 to 5:10 34.37 34.37 34.37 34.37 34.37 34.37
4/30/2015 05:00 to 4:10 34.37 34.37 34.37 34.37 34.36 34.37
4/30/2015 04:00 to 3:10 34.36 34.37 34.36 34.36 34.36 34.36
4/30/2015 03:00 to 2:10 34.36 34.36 34.36 34.35 34.36 34.36
4/30/2015 02:00 to 1:10 34.35 34.35 34.35 34.35 34.35 34.35
4/30/2015 01:00 to 0:10 34.34 34.35 34.34 34.34 34.34 34.34
4/30/2015 00:00 to 23:10 34.34 34.34 34.34 34.33 34.31 34.32
4/29/2015 23:00 to 22:10 34.33 34.32 34.33 34.33 34.34 34.31
4/29/2015 22:00 to 21:10 34.34 34.31 34.30 34.33 34.34 34.31
4/29/2015 21:00 to 20:10 34.30 34.32 34.31 34.30 34.29 34.29
4/29/2015 20:00 to 19:10 34.29 34.29 34.28 34.29 34.28 34.29
4/29/2015 19:00 to 18:10 34.28 34.29 34.26 34.27 34.27 34.26
4/29/2015 18:00 to 17:10 34.27 34.26 34.25 34.25 34.25 34.25
4/29/2015 17:00 to 16:10 34.25 34.25 34.24 34.24 34.24 34.23
4/29/2015 16:00 to 15:10 34.24 34.24 34.24 34.29 34.29 34.29
4/29/2015 15:00 to 14:10 34.29 34.29 34.29 34.29 34.28 34.28
4/29/2015 14:00 to 13:10 34.28 34.28 34.28 34.27 34.27 34.27
4/29/2015 13:00 to 12:10 34.28 34.28 34.28 34.29 34.29 34.29
4/29/2015 12:00 to 11:10 34.30 34.31 34.30 34.30 34.30 34.30
4/29/2015 11:00 to 10:10 34.31 34.30 34.31 34.31 34.31 34.31
4/29/2015 10:00 to 9:10 34.31 34.31 34.31 34.32 34.32 34.32
4/29/2015 09:00 to 8:10 34.32 34.32 34.32 34.31 34.32 34.32
4/29/2015 08:00 to 7:10 34.31 34.31 34.32 34.31 34.31 34.31
4/29/2015 07:00 to 6:10 34.31 34.31 34.31 34.31 34.31 34.31
4/29/2015 06:00 to 5:10 34.31 34.31 34.31 34.31 34.32 34.33
4/29/2015 05:00 to 4:10 34.33 34.33 34.33 34.32 34.32 34.33
4/29/2015 04:00 to 3:10 34.32 34.33 34.32 34.33 34.33 34.33
4/29/2015 03:00 to 2:10 34.33 34.33 34.33 34.33 34.33 34.32
4/29/2015 02:00 to 1:10 34.32 34.33 34.33 34.34 34.33 34.33
4/29/2015 01:00 to 0:10 34.33 34.33 34.33 34.33 34.33 34.33